Time,TemperatureF,DewpointF,PressureIn,WindDirection,WindDirectionDegrees,WindSpeedMPH,WindSpeedGustMPH,Humidity,HourlyPrecipIn,Conditions,Clouds,dailyrainin,SoftwareType,DateUTC
2013-09-10 00:00:00,-36.1,-44.3,29.09,North,0,0.0,0.0,62,0.00,CLR,,0.00,WeatherDisplay:10.37,2013-09-09 12:00:00,
2013-09-10 00:15:00,-37.2,-45.7,29.08,WSW,242,0.0,0.0,61,0.00,CLR,,0.00,WeatherDisplay:10.37,2013-09-09 12:15:00,
2013-09-10 00:30:00,-37.5,-46.0,29.08,West,259,0.0,0.0,61,0.00,CLR,,0.00,WeatherDisplay:10.37,2013-09-09 12:30:00,
2013-09-10 00:45:00,-38.3,-47.0,29.07,NE,35,3.0,3.0,60,0.00,CLR,,0.00,WeatherDisplay:10.37,2013-09-09 12:45:00,
2013-09-10 01:00:00,-37.9,-46.3,29.07,NE,52,5.0,5.0,61,0.00,CLR,,0.00,WeatherDisplay:10.37,2013-09-09 13:00:00,
2013-09-10 01:15:00,-34.8,-42.6,29.05,NE,37,3.0,5.0,64,0.00,CLR,,0.00,WeatherDisplay:10.37,2013-09-09 13:15:00,
2013-09-10 01:30:00,-33.5,-41.4,29.05,NE,38,1.0,3.0,64,0.00,CLR,,0.00,WeatherDisplay:10.37,2013-09-09 13:30:00,
2013-09-10 01:45:00,-35.3,-43.3,29.04,ENE,59,1.0,1.0,63,0.00,CLR,,0.00,WeatherDisplay:10.37,2013-09-09 13:45:00,
2013-09-10 02:00:00,-35.6,-43.9,29.03,NNE,21,5.0,5.0,62,0.00,CLR,,0.00,WeatherDisplay:10.37,2013-09-09 14:00:00,
2013-09-10 02:15:00,-34.4,-42.2,29.03,NNE,13,3.0,5.0,64,0.00,CLR,,0.00,WeatherDisplay:10.37,2013-09-09 14:15:00,
2013-09-10 02:30:00,-32.4,-40.0,29.02,NNE,18,3.0,3.0,65,0.00,CLR,,0.00,WeatherDisplay:10.37,2013-09-09 14:30:00,
2013-09-10 02:45:00,-31.6,-39.2,29.01,North,0,0.0,3.0,65,0.00,CLR,,0.00,WeatherDisplay:10.37,2013-09-09 14:45:00,
2013-09-10 03:00:00,-30.7,-38.1,29.00,North,8,2.0,2.0,66,0.00,CLR,,0.00,WeatherDisplay:10.37,2013-09-09 15:00:00,
2013-09-10 03:15:00,-30.0,-37.5,28.99,NNE,16,2.0,2.0,66,0.00,CLR,,0.00,WeatherDisplay:10.37,2013-09-09 15:15:00,
2013-09-10 03:30:00,-29.9,-37.4,29.00,North,356,1.0,2.0,66,0.00,CLR,,0.00,WeatherDisplay:10.37,2013-09-09 15:30:00,
2013-09-10 03:45:00,-29.5,-36.9,28.98,West,266,1.0,1.0,66,0.00,CLR,,0.00,WeatherDisplay:10.37,2013-09-09 15:45:00,
2013-09-10 04:00:00,-28.5,-35.8,28.97,West,260,2.0,2.0,67,0.00,CLR,,0.00,WeatherDisplay:10.37,2013-09-09 16:00:00,
2013-09-10 04:15:00,-27.4,-34.4,28.95,North,0,0.0,2.0,68,0.00,CLR,,0.00,WeatherDisplay:10.37,2013-09-09 16:15:00,
2013-09-10 04:30:00,-27.0,-34.0,28.95,North,0,0.0,0.0,68,0.00,CLR,,0.00,WeatherDisplay:10.37,2013-09-09 16:30:00,
2013-09-10 04:45:00,-28.9,-36.4,28.94,SW,219,0.0,0.0,66,0.00,CLR,,0.00,WeatherDisplay:10.37,2013-09-09 16:45:00,
2013-09-10 05:00:00,-29.2,-36.4,28.93,SW,230,2.0,2.0,67,0.00,CLR,,0.00,WeatherDisplay:10.37,2013-09-09 17:00:00,
2013-09-10 05:15:00,-29.8,-37.3,28.93,SW,226,1.0,2.0,66,0.00,CLR,,0.00,WeatherDisplay:10.37,2013-09-09 17:15:00,
2013-09-10 05:30:00,-28.4,-35.4,28.93,WSW,249,5.0,5.0,68,0.00,CLR,,0.00,WeatherDisplay:10.37,2013-09-09 17:30:00,
2013-09-10 05:45:00,-25.9,-32.7,28.92,WNW,299,0.0,5.0,69,0.00,CLR,,0.00,WeatherDisplay:10.37,2013-09-09 17:45:00,
2013-09-10 06:00:00,-26.8,-33.8,28.91,WNW,284,0.0,0.0,68,0.00,CLR,,0.00,WeatherDisplay:10.37,2013-09-09 18:00:00,
2013-09-10 06:15:00,-24.4,-31.0,28.90,West,261,6.0,6.0,70,0.00,CLR,,0.00,WeatherDisplay:10.37,2013-09-09 18:15:00,
2013-09-10 06:30:00,-25.4,-32.5,28.89,WSW,247,1.0,6.0,68,0.00,CLR,,0.00,WeatherDisplay:10.37,2013-09-09 18:30:00,
2013-09-10 06:45:00,-28.6,-35.9,28.90,WSW,258,5.0,5.0,67,0.00,CLR,,0.00,WeatherDisplay:10.37,2013-09-09 18:45:00,
2013-09-10 07:00:00,-26.2,-32.8,28.89,West,271,3.0,5.0,70,0.00,CLR,,0.00,WeatherDisplay:10.37,2013-09-09 19:00:00,
2013-09-10 07:15:00,-28.3,-36.1,28.88,NNE,20,7.0,7.0,65,0.00,CLR,,0.00,WeatherDisplay:10.37,2013-09-09 19:15:00,
2013-09-10 07:30:00,-29.3,-36.5,28.87,North,2,2.0,7.0,67,0.00,CLR,,0.00,WeatherDisplay:10.37,2013-09-09 19:30:00,
2013-09-10 07:45:00,-27.4,-34.4,28.88,NNE,20,5.0,5.0,68,0.00,CLR,,0.00,WeatherDisplay:10.37,2013-09-09 19:45:00,
2013-09-10 08:00:00,-25.7,-32.3,28.87,NNE,14,6.0,6.0,70,0.00,CLR,,0.00,WeatherDisplay:10.37,2013-09-09 20:00:00,
2013-09-10 08:15:00,-25.7,-32.5,28.85,NNE,23,7.0,7.0,69,0.00,CLR,,0.00,WeatherDisplay:10.37,2013-09-09 20:15:00,
2013-09-10 08:30:00,-27.5,-34.8,28.86,NNE,28,7.0,7.0,67,0.00,CLR,,0.00,WeatherDisplay:10.37,2013-09-09 20:30:00,
2013-09-10 08:45:00,-26.3,-32.9,28.85,NNE,21,8.0,8.0,70,0.00,CLR,,0.00,WeatherDisplay:10.37,2013-09-09 20:45:00,
2013-09-10 09:00:00,-23.7,-30.1,28.85,NNE,23,8.0,8.0,71,0.00,CLR,,0.00,WeatherDisplay:10.37,2013-09-09 21:00:00,
2013-09-10 09:15:00,-34.1,-42.7,28.86,NE,38,9.0,9.0,61,0.00,CLR,,0.00,WeatherDisplay:10.37,2013-09-09 21:15:00,
2013-09-10 09:30:00,-35.0,-43.1,28.86,NE,36,9.0,9.0,63,0.00,CLR,,0.00,WeatherDisplay:10.37,2013-09-09 21:30:00,
2013-09-10 09:45:00,-30.9,-38.3,28.86,NNE,31,10.0,10.0,66,0.00,CLR,,0.00,WeatherDisplay:10.37,2013-09-09 21:45:00,
2013-09-10 10:00:00,-32.3,-39.9,28.86,NNE,26,12.0,12.0,65,0.00,CLR,,0.00,WeatherDisplay:10.37,2013-09-09 22:00:00,
2013-09-10 10:15:00,-23.6,-30.0,28.85,NE,34,15.0,15.0,71,0.00,CLR,,0.00,WeatherDisplay:10.37,2013-09-09 22:15:00,
2013-09-10 10:30:00,-22.4,-28.5,28.85,NNE,33,17.0,17.0,72,0.00,CLR,,0.00,WeatherDisplay:10.37,2013-09-09 22:30:00,
2013-09-10 10:45:00,-21.7,-28.1,28.84,NNE,33,17.0,17.0,71,0.00,CLR,,0.00,WeatherDisplay:10.37,2013-09-09 22:45:00,
2013-09-10 11:00:00,-20.3,-26.3,28.84,NE,34,18.0,18.0,73,0.00,CLR,,0.00,WeatherDisplay:10.37,2013-09-09 23:00:00,
2013-09-10 11:15:00,-17.9,-23.6,28.83,NNE,31,20.0,20.0,74,0.00,CLR,,0.00,WeatherDisplay:10.37,2013-09-09 23:15:00,
2013-09-10 11:30:00,-17.4,-23.2,28.83,NNE,33,21.0,21.0,74,0.00,CLR,,0.00,WeatherDisplay:10.37,2013-09-09 23:30:00,
2013-09-10 11:45:00,-16.2,-22.0,28.83,NNE,30,22.0,22.0,74,0.00,CLR,,0.00,WeatherDisplay:10.37,2013-09-09 23:45:00,
2013-09-10 12:00:00,-15.6,-21.4,28.83,NNE,32,22.0,22.0,74,0.00,CLR,,0.00,WeatherDisplay:10.37,2013-09-10 00:00:00,
2013-09-10 12:15:00,-16.5,-22.6,28.83,NE,35,22.0,22.0,73,0.00,CLR,,0.00,WeatherDisplay:10.37,2013-09-10 00:15:00,
2013-09-10 12:30:00,-17.4,-23.7,28.83,NE,35,21.0,22.0,72,0.00,CLR,,0.00,WeatherDisplay:10.37,2013-09-10 00:30:00,
2013-09-10 12:45:00,-17.8,-24.6,28.83,NE,37,21.0,21.0,70,0.00,CLR,,0.00,WeatherDisplay:10.37,2013-09-10 00:45:00,
2013-09-10 13:00:00,-17.9,-24.5,28.83,NE,34,21.0,21.0,71,0.00,CLR,,0.00,WeatherDisplay:10.37,2013-09-10 01:00:00,
2013-09-10 13:15:00,-18.5,-25.6,28.84,NE,44,15.0,21.0,69,0.00,CLR,,0.00,WeatherDisplay:10.37,2013-09-10 01:15:00,
2013-09-10 13:30:00,-20.7,-27.9,28.84,NE,43,15.0,15.0,68,0.00,CLR,,0.00,WeatherDisplay:10.37,2013-09-10 01:30:00,
2013-09-10 13:45:00,-20.8,-28.1,28.85,ENE,60,9.0,15.0,68,0.00,CLR,,0.00,WeatherDisplay:10.37,2013-09-10 01:45:00,
2013-09-10 14:00:00,-28.7,-37.6,28.86,ESE,121,2.0,9.0,61,0.00,CLR,,0.00,WeatherDisplay:10.37,2013-09-10 02:00:00,
2013-09-10 14:15:00,-30.1,-37.5,28.86,NE,47,2.0,2.0,66,0.00,CLR,,0.00,WeatherDisplay:10.37,2013-09-10 02:15:00,
2013-09-10 14:30:00,-27.1,-34.1,28.86,NNE,28,7.0,7.0,68,0.00,CLR,,0.00,WeatherDisplay:10.37,2013-09-10 02:30:00,
2013-09-10 14:45:00,-25.0,-32.4,28.85,NE,35,10.0,10.0,67,0.00,CLR,,0.00,WeatherDisplay:10.37,2013-09-10 02:45:00,
2013-09-10 15:00:00,-22.0,-28.9,28.85,NE,35,10.0,10.0,69,0.00,CLR,,0.00,WeatherDisplay:10.37,2013-09-10 03:00:00,
2013-09-10 15:15:00,-21.6,-28.8,28.85,NE,36,10.0,10.0,68,0.00,CLR,,0.00,WeatherDisplay:10.37,2013-09-10 03:15:00,
2013-09-10 15:31:00,-23.9,-31.6,28.85,NE,38,9.0,10.0,66,0.00,CLR,,0.00,WeatherDisplay:10.37,2013-09-10 03:31:00,
2013-09-10 15:45:00,-26.3,-33.4,28.87,ESE,109,0.0,9.0,68,0.00,CLR,,0.00,WeatherDisplay:10.37,2013-09-10 03:45:00,
2013-09-10 16:00:00,-25.4,-32.7,28.87,NE,51,2.0,2.0,67,0.00,CLR,,0.00,WeatherDisplay:10.37,2013-09-10 04:00:00,
2013-09-10 16:15:00,-24.8,-31.9,28.87,NE,36,8.0,8.0,68,0.00,CLR,,0.00,WeatherDisplay:10.37,2013-09-10 04:15:00,
2013-09-10 16:30:00,-23.1,-30.3,28.88,NE,34,7.0,8.0,68,0.00,CLR,,0.00,WeatherDisplay:10.37,2013-09-10 04:30:00,
2013-09-10 16:45:00,-18.5,-25.9,28.88,NNE,28,6.0,7.0,68,0.00,CLR,,0.00,WeatherDisplay:10.37,2013-09-10 04:45:00,
2013-09-10 17:00:00,-19.5,-26.8,28.88,NNE,30,8.0,8.0,68,0.00,CLR,,0.00,WeatherDisplay:10.37,2013-09-10 05:00:00,
2013-09-10 17:15:00,-19.3,-26.4,28.88,NNE,31,8.0,8.0,69,0.00,CLR,,0.00,WeatherDisplay:10.37,2013-09-10 05:15:00,
2013-09-10 17:30:00,-21.6,-29.4,28.88,NNE,33,7.0,8.0,66,0.00,CLR,,0.00,WeatherDisplay:10.37,2013-09-10 05:30:00,
2013-09-10 17:45:00,-19.8,-26.5,28.88,NNE,31,9.0,9.0,70,0.00,CLR,,0.00,WeatherDisplay:10.37,2013-09-10 05:45:00,
2013-09-10 18:00:00,-20.8,-27.8,28.89,NNE,32,12.0,12.0,69,0.00,CLR,,0.00,WeatherDisplay:10.37,2013-09-10 06:00:00,
2013-09-10 18:15:00,-17.9,-24.2,28.90,NE,48,8.0,12.0,72,0.00,CLR,,0.00,WeatherDisplay:10.37,2013-09-10 06:15:00,
2013-09-10 18:30:00,-17.3,-23.6,28.91,NE,46,7.0,8.0,72,0.00,CLR,,0.00,WeatherDisplay:10.37,2013-09-10 06:30:00,
2013-09-10 18:45:00,-18.4,-25.0,28.92,NNE,31,12.0,12.0,71,0.00,CLR,,0.00,WeatherDisplay:10.37,2013-09-10 06:45:00,
2013-09-10 19:00:00,-18.2,-25.0,28.93,NNE,27,12.0,12.0,70,0.00,CLR,,0.00,WeatherDisplay:10.37,2013-09-10 07:00:00,
2013-09-10 19:15:00,-18.2,-24.7,28.94,SW,221,6.0,12.0,71,0.00,CLR,,0.00,WeatherDisplay:10.37,2013-09-10 07:15:00,
2013-09-10 19:30:00,-19.2,-25.8,28.93,SSE,149,14.0,14.0,71,0.00,CLR,,0.00,WeatherDisplay:10.37,2013-09-10 07:30:00,
2013-09-10 19:45:00,-20.0,-26.3,28.93,SSE,152,23.0,23.0,72,0.00,,,0.00,WeatherDisplay:10.37,2013-09-10 07:45:00,
2013-09-10 20:00:00,-20.4,-26.6,28.94,SSE,147,21.0,23.0,72,0.00,CLR,,0.00,WeatherDisplay:10.37,2013-09-10 08:00:00,
2013-09-10 20:15:00,-20.5,-26.7,28.95,East,93,6.0,21.0,72,0.00,CLR,,0.00,WeatherDisplay:10.37,2013-09-10 08:15:00,
2013-09-10 20:30:00,-19.4,-25.4,28.96,ENE,64,5.0,6.0,73,0.00,CLR,,0.00,WeatherDisplay:10.37,2013-09-10 08:30:00,
2013-09-10 20:45:00,-19.9,-25.9,28.97,NNE,30,9.0,9.0,73,0.00,CLR,,0.00,WeatherDisplay:10.37,2013-09-10 08:45:00,
2013-09-10 21:00:00,-19.2,-25.2,28.97,ENE,65,7.0,9.0,73,0.00,CLR,,0.00,WeatherDisplay:10.37,2013-09-10 09:00:00,
2013-09-10 21:15:00,-20.4,-26.6,28.97,NNE,18,17.0,17.0,72,0.00,CLR,,0.00,WeatherDisplay:10.37,2013-09-10 09:15:00,
2013-09-10 21:30:00,-21.0,-27.2,28.98,NNE,14,14.0,17.0,72,0.00,CLR,,0.00,WeatherDisplay:10.37,2013-09-10 09:30:00,
2013-09-10 21:45:00,-20.8,-27.0,28.99,NE,34,9.0,14.0,72,0.00,CLR,,0.00,WeatherDisplay:10.37,2013-09-10 09:45:00,
2013-09-10 22:00:00,-21.3,-27.5,28.99,NNE,22,14.0,14.0,72,0.00,CLR,,0.00,WeatherDisplay:10.37,2013-09-10 10:00:00,
2013-09-10 22:15:00,-18.9,-24.9,29.01,ENE,65,13.0,14.0,73,0.00,CLR,,0.00,WeatherDisplay:10.37,2013-09-10 10:15:00,
2013-09-10 22:30:00,-19.4,-25.7,28.99,SE,127,18.0,18.0,72,0.00,CLR,,0.00,WeatherDisplay:10.37,2013-09-10 10:30:00,
2013-09-10 22:45:00,-18.4,-24.4,29.01,SSE,151,22.0,22.0,73,0.00,CLR,,0.00,WeatherDisplay:10.37,2013-09-10 10:45:00,
2013-09-10 23:00:00,-17.9,-23.7,29.03,SE,135,18.0,22.0,74,0.00,CLR,,0.00,WeatherDisplay:10.37,2013-09-10 11:00:00,
2013-09-10 23:15:00,-16.5,-22.4,29.04,East,86,12.0,18.0,74,0.00,CLR,,0.00,WeatherDisplay:10.37,2013-09-10 11:15:00,
2013-09-10 23:30:00,-16.6,-22.7,29.05,ENE,74,10.0,12.0,73,0.00,CLR,,0.00,WeatherDisplay:10.37,2013-09-10 11:30:00,
2013-09-10 23:45:00,-19.8,-26.3,29.06,NE,34,14.0,14.0,71,0.00,CLR,,0.00,WeatherDisplay:10.37,2013-09-10 11:45:00,